KTWF/TWF METAR and TAF weather

Enter ICAO airport designator
Station Type Date Time Source
KTWF METAR 2022/06/28 08:53 UTC NOAA

KTWF 280853Z AUTO 21014KT 10SM CLR 22/02 A3007 RMK AO2 SLP115 T02220017 58010 $


Station Type Date Time Source
KTWF Decoded METAR 2022/06/28 08:53 UTC NOAA

JOSLIN FLD-MAGIC VALLEY REGL, ID, United States (KTWF) 42-29N 114-29W 1266M
Jun 28, 2022 - 04:53 AM EDT / 2022.06.28 0853 UTC
Wind: from the SSW (210 degrees) at 16 MPH (14 KT):0
Visibility: 10 mile(s):0
Sky conditions: clear
Temperature: 72.0 F (22.2 C)
Dew Point: 35.1 F (1.7 C)
Relative Humidity: 25%
Pressure (altimeter): 30.07 in. Hg (1018 hPa)
Pressure tendency: 0.03 inches (1.0 hPa) lower than three hours ago
ob: KTWF 280853Z AUTO 21014KT 10SM CLR 22/02 A3007 RMK AO2 SLP115 T02220017 58010
cycle: 9

Station Type Date Time Source
KTWF TAF 2022/06/28 06:22 UTC NOAA

TAF KTWF 280520Z 2806/2906 17010KT P6SM SCT150
FM281600 27013KT P6SM BKN150
FM282000 29015G25KT P6SM SCT150

Example: see airport list